sensor_id;sensor_type;location;lat;lon;timestamp;P1;durP1;ratioP1;P2;durP2;ratioP2
22223;SDS011;11281;52.194;21.006;2023-02-28T00:01:53;8.18;;;5.32;;
22223;SDS011;11281;52.194;21.006;2023-02-28T00:06:15;9.90;;;5.53;;
22223;SDS011;11281;52.194;21.006;2023-02-28T00:10:37;8.63;;;5.50;;
22223;SDS011;11281;52.194;21.006;2023-02-28T00:14:59;12.07;;;6.13;;
22223;SDS011;11281;52.194;21.006;2023-02-28T00:19:22;9.13;;;5.10;;
22223;SDS011;11281;52.194;21.006;2023-02-28T00:23:44;6.15;;;4.30;;
22223;SDS011;11281;52.194;21.006;2023-02-28T00:28:05;9.80;;;4.82;;
22223;SDS011;11281;52.194;21.006;2023-02-28T00:32:27;6.57;;;4.68;;
22223;SDS011;11281;52.194;21.006;2023-02-28T00:36:49;10.52;;;5.82;;
22223;SDS011;11281;52.194;21.006;2023-02-28T00:41:11;7.95;;;5.30;;
22223;SDS011;11281;52.194;21.006;2023-02-28T00:45:32;9.93;;;5.28;;
22223;SDS011;11281;52.194;21.006;2023-02-28T00:49:54;10.75;;;5.53;;
22223;SDS011;11281;52.194;21.006;2023-02-28T00:54:16;13.65;;;5.50;;
22223;SDS011;11281;52.194;21.006;2023-02-28T00:58:38;8.52;;;4.82;;
22223;SDS011;11281;52.194;21.006;2023-02-28T01:03:00;6.30;;;4.53;;
22223;SDS011;11281;52.194;21.006;2023-02-28T01:07:21;8.93;;;5.45;;
22223;SDS011;11281;52.194;21.006;2023-02-28T01:11:44;9.98;;;5.43;;
22223;SDS011;11281;52.194;21.006;2023-02-28T01:16:05;10.93;;;5.65;;
22223;SDS011;11281;52.194;21.006;2023-02-28T01:20:27;7.80;;;5.15;;
22223;SDS011;11281;52.194;21.006;2023-02-28T01:24:49;8.55;;;5.38;;
22223;SDS011;11281;52.194;21.006;2023-02-28T01:29:11;7.28;;;5.85;;
22223;SDS011;11281;52.194;21.006;2023-02-28T01:33:33;7.95;;;5.00;;
22223;SDS011;11281;52.194;21.006;2023-02-28T01:37:55;7.38;;;5.43;;
22223;SDS011;11281;52.194;21.006;2023-02-28T01:42:16;10.30;;;6.03;;
22223;SDS011;11281;52.194;21.006;2023-02-28T01:46:38;10.30;;;5.53;;
22223;SDS011;11281;52.194;21.006;2023-02-28T01:51:01;9.15;;;5.18;;
22223;SDS011;11281;52.194;21.006;2023-02-28T01:55:30;10.65;;;5.38;;
22223;SDS011;11281;52.194;21.006;2023-02-28T01:59:59;13.00;;;5.63;;
22223;SDS011;11281;52.194;21.006;2023-02-28T02:04:35;9.85;;;5.43;;
22223;SDS011;11281;52.194;21.006;2023-02-28T02:09:02;6.63;;;4.63;;
22223;SDS011;11281;52.194;21.006;2023-02-28T02:18:22;15.25;;;7.57;;
22223;SDS011;11281;52.194;21.006;2023-02-28T02:28:52;13.20;;;8.13;;
22223;SDS011;11281;52.194;21.006;2023-02-28T02:38:10;11.73;;;7.70;;
22223;SDS011;11281;52.194;21.006;2023-02-28T02:43:04;18.75;;;9.10;;
22223;SDS011;11281;52.194;21.006;2023-02-28T02:47:34;26.95;;;11.07;;
22223;SDS011;11281;52.194;21.006;2023-02-28T02:52:01;15.10;;;9.48;;
22223;SDS011;11281;52.194;21.006;2023-02-28T02:56:28;14.27;;;7.80;;
22223;SDS011;11281;52.194;21.006;2023-02-28T03:00:56;14.95;;;8.65;;
22223;SDS011;11281;52.194;21.006;2023-02-28T03:05:23;13.23;;;7.97;;
22223;SDS011;11281;52.194;21.006;2023-02-28T03:09:51;14.23;;;8.18;;
22223;SDS011;11281;52.194;21.006;2023-02-28T03:23:52;15.52;;;8.52;;
22223;SDS011;11281;52.194;21.006;2023-02-28T03:28:42;13.88;;;8.13;;
22223;SDS011;11281;52.194;21.006;2023-02-28T03:33:16;13.75;;;8.02;;
22223;SDS011;11281;52.194;21.006;2023-02-28T03:37:44;15.07;;;8.30;;
22223;SDS011;11281;52.194;21.006;2023-02-28T03:42:09;12.07;;;6.88;;
22223;SDS011;11281;52.194;21.006;2023-02-28T03:46:37;11.63;;;6.72;;
22223;SDS011;11281;52.194;21.006;2023-02-28T03:51:05;17.27;;;8.75;;
22223;SDS011;11281;52.194;21.006;2023-02-28T03:55:32;14.13;;;7.65;;
22223;SDS011;11281;52.194;21.006;2023-02-28T04:00:20;11.05;;;6.30;;
22223;SDS011;11281;52.194;21.006;2023-02-28T04:04:49;12.15;;;7.25;;
22223;SDS011;11281;52.194;21.006;2023-02-28T04:09:13;13.82;;;7.68;;
22223;SDS011;11281;52.194;21.006;2023-02-28T04:13:35;11.75;;;7.15;;
22223;SDS011;11281;52.194;21.006;2023-02-28T04:17:57;10.18;;;6.13;;
22223;SDS011;11281;52.194;21.006;2023-02-28T04:22:19;9.93;;;6.68;;
22223;SDS011;11281;52.194;21.006;2023-02-28T04:26:41;8.65;;;5.65;;
22223;SDS011;11281;52.194;21.006;2023-02-28T04:31:06;12.90;;;7.63;;
22223;SDS011;11281;52.194;21.006;2023-02-28T04:35:28;11.23;;;6.35;;
22223;SDS011;11281;52.194;21.006;2023-02-28T04:39:49;12.45;;;6.88;;
22223;SDS011;11281;52.194;21.006;2023-02-28T04:44:11;9.85;;;6.60;;
22223;SDS011;11281;52.194;21.006;2023-02-28T04:48:34;12.90;;;5.45;;
22223;SDS011;11281;52.194;21.006;2023-02-28T04:52:58;10.18;;;5.57;;
22223;SDS011;11281;52.194;21.006;2023-02-28T04:57:19;12.90;;;6.43;;
22223;SDS011;11281;52.194;21.006;2023-02-28T05:01:45;9.18;;;5.75;;
22223;SDS011;11281;52.194;21.006;2023-02-28T05:06:09;7.80;;;5.07;;
22223;SDS011;11281;52.194;21.006;2023-02-28T05:10:32;9.30;;;6.03;;
22223;SDS011;11281;52.194;21.006;2023-02-28T05:14:54;7.15;;;5.28;;
22223;SDS011;11281;52.194;21.006;2023-02-28T05:19:15;14.73;;;6.65;;
22223;SDS011;11281;52.194;21.006;2023-02-28T05:23:37;17.65;;;8.15;;
22223;SDS011;11281;52.194;21.006;2023-02-28T05:27:59;13.82;;;6.45;;
22223;SDS011;11281;52.194;21.006;2023-02-28T05:32:21;16.50;;;8.93;;
22223;SDS011;11281;52.194;21.006;2023-02-28T05:36:43;13.98;;;7.53;;
22223;SDS011;11281;52.194;21.006;2023-02-28T05:41:08;25.63;;;10.63;;
22223;SDS011;11281;52.194;21.006;2023-02-28T05:45:31;31.33;;;15.68;;
22223;SDS011;11281;52.194;21.006;2023-02-28T05:49:52;33.53;;;14.80;;
22223;SDS011;11281;52.194;21.006;2023-02-28T05:54:14;26.77;;;13.43;;
22223;SDS011;11281;52.194;21.006;2023-02-28T05:58:36;40.85;;;18.60;;
22223;SDS011;11281;52.194;21.006;2023-02-28T06:02:58;49.63;;;20.48;;
22223;SDS011;11281;52.194;21.006;2023-02-28T06:07:22;44.35;;;19.67;;
22223;SDS011;11281;52.194;21.006;2023-02-28T06:11:44;22.35;;;10.65;;
22223;SDS011;11281;52.194;21.006;2023-02-28T06:16:06;23.63;;;9.73;;
22223;SDS011;11281;52.194;21.006;2023-02-28T06:20:29;20.50;;;9.50;;
22223;SDS011;11281;52.194;21.006;2023-02-28T06:24:51;21.92;;;10.45;;
22223;SDS011;11281;52.194;21.006;2023-02-28T06:29:13;23.60;;;10.65;;
22223;SDS011;11281;52.194;21.006;2023-02-28T06:33:39;29.02;;;14.57;;
22223;SDS011;11281;52.194;21.006;2023-02-28T06:38:03;22.70;;;11.88;;
22223;SDS011;11281;52.194;21.006;2023-02-28T06:42:24;27.80;;;11.65;;
22223;SDS011;11281;52.194;21.006;2023-02-28T06:46:49;29.20;;;13.50;;
22223;SDS011;11281;52.194;21.006;2023-02-28T06:51:12;22.58;;;11.02;;
22223;SDS011;11281;52.194;21.006;2023-02-28T06:55:37;21.30;;;9.75;;
22223;SDS011;11281;52.194;21.006;2023-02-28T07:00:00;18.15;;;9.25;;
22223;SDS011;11281;52.194;21.006;2023-02-28T07:04:26;21.88;;;9.65;;
22223;SDS011;11281;52.194;21.006;2023-02-28T07:08:52;41.92;;;16.50;;
22223;SDS011;11281;52.194;21.006;2023-02-28T07:13:14;17.63;;;9.48;;
22223;SDS011;11281;52.194;21.006;2023-02-28T07:17:36;15.95;;;9.02;;
22223;SDS011;11281;52.194;21.006;2023-02-28T07:21:58;19.02;;;9.20;;
22223;SDS011;11281;52.194;21.006;2023-02-28T07:26:20;12.18;;;6.95;;
22223;SDS011;11281;52.194;21.006;2023-02-28T07:30:42;15.55;;;8.32;;
22223;SDS011;11281;52.194;21.006;2023-02-28T07:35:04;9.52;;;5.65;;
22223;SDS011;11281;52.194;21.006;2023-02-28T07:39:26;11.23;;;6.03;;
22223;SDS011;11281;52.194;21.006;2023-02-28T07:43:48;5.97;;;4.90;;
22223;SDS011;11281;52.194;21.006;2023-02-28T07:48:10;9.55;;;5.65;;
22223;SDS011;11281;52.194;21.006;2023-02-28T07:52:31;12.93;;;6.78;;
22223;SDS011;11281;52.194;21.006;2023-02-28T07:56:53;8.88;;;5.18;;
22223;SDS011;11281;52.194;21.006;2023-02-28T08:01:15;61.30;;;25.95;;
22223;SDS011;11281;52.194;21.006;2023-02-28T08:05:39;61.65;;;29.13;;
22223;SDS011;11281;52.194;21.006;2023-02-28T08:10:01;10.55;;;6.68;;
22223;SDS011;11281;52.194;21.006;2023-02-28T08:14:24;11.50;;;6.38;;
22223;SDS011;11281;52.194;21.006;2023-02-28T08:18:45;10.85;;;6.25;;
22223;SDS011;11281;52.194;21.006;2023-02-28T08:23:07;8.73;;;5.80;;
22223;SDS011;11281;52.194;21.006;2023-02-28T08:27:29;9.38;;;6.03;;
22223;SDS011;11281;52.194;21.006;2023-02-28T08:31:50;12.00;;;6.50;;
22223;SDS011;11281;52.194;21.006;2023-02-28T08:36:12;11.43;;;6.38;;
22223;SDS011;11281;52.194;21.006;2023-02-28T08:40:34;12.20;;;6.30;;
22223;SDS011;11281;52.194;21.006;2023-02-28T08:44:55;8.50;;;6.07;;
22223;SDS011;11281;52.194;21.006;2023-02-28T08:49:17;11.85;;;5.97;;
22223;SDS011;11281;52.194;21.006;2023-02-28T08:53:39;9.68;;;6.07;;
22223;SDS011;11281;52.194;21.006;2023-02-28T08:58:01;12.50;;;6.60;;
22223;SDS011;11281;52.194;21.006;2023-02-28T09:02:23;10.25;;;5.93;;
22223;SDS011;11281;52.194;21.006;2023-02-28T09:06:45;12.90;;;5.43;;
22223;SDS011;11281;52.194;21.006;2023-02-28T09:11:07;10.70;;;5.93;;
22223;SDS011;11281;52.194;21.006;2023-02-28T09:15:29;11.30;;;6.25;;
22223;SDS011;11281;52.194;21.006;2023-02-28T09:19:51;9.23;;;6.38;;
22223;SDS011;11281;52.194;21.006;2023-02-28T09:24:13;10.98;;;6.40;;
22223;SDS011;11281;52.194;21.006;2023-02-28T09:28:36;10.10;;;6.65;;
22223;SDS011;11281;52.194;21.006;2023-02-28T09:32:57;13.02;;;6.72;;
22223;SDS011;11281;52.194;21.006;2023-02-28T09:37:19;9.13;;;5.88;;
22223;SDS011;11281;52.194;21.006;2023-02-28T09:41:42;11.43;;;5.90;;
22223;SDS011;11281;52.194;21.006;2023-02-28T09:46:21;13.93;;;6.07;;
22223;SDS011;11281;52.194;21.006;2023-02-28T09:51:05;11.50;;;5.90;;
22223;SDS011;11281;52.194;21.006;2023-02-28T09:55:54;9.43;;;5.47;;
22223;SDS011;11281;52.194;21.006;2023-02-28T10:04:51;14.73;;;8.18;;
22223;SDS011;11281;52.194;21.006;2023-02-28T10:09:21;9.68;;;6.60;;
22223;SDS011;11281;52.194;21.006;2023-02-28T10:18:27;12.18;;;6.85;;
22223;SDS011;11281;52.194;21.006;2023-02-28T10:23:19;9.85;;;6.30;;
22223;SDS011;11281;52.194;21.006;2023-02-28T10:27:43;10.93;;;6.63;;
22223;SDS011;11281;52.194;21.006;2023-02-28T10:32:04;10.48;;;6.53;;
22223;SDS011;11281;52.194;21.006;2023-02-28T10:36:26;12.05;;;6.20;;
22223;SDS011;11281;52.194;21.006;2023-02-28T10:40:49;12.18;;;6.63;;
22223;SDS011;11281;52.194;21.006;2023-02-28T10:45:13;10.50;;;6.60;;
22223;SDS011;11281;52.194;21.006;2023-02-28T10:49:37;11.52;;;6.45;;
22223;SDS011;11281;52.194;21.006;2023-02-28T11:03:33;10.80;;;6.35;;
22223;SDS011;11281;52.194;21.006;2023-02-28T11:08:02;14.00;;;7.40;;
22223;SDS011;11281;52.194;21.006;2023-02-28T11:12:37;9.98;;;5.57;;
22223;SDS011;11281;52.194;21.006;2023-02-28T11:17:11;11.77;;;6.65;;
22223;SDS011;11281;52.194;21.006;2023-02-28T11:21:45;10.02;;;5.78;;
22223;SDS011;11281;52.194;21.006;2023-02-28T11:26:34;11.07;;;5.53;;
22223;SDS011;11281;52.194;21.006;2023-02-28T11:35:36;9.90;;;6.57;;
22223;SDS011;11281;52.194;21.006;2023-02-28T11:59:14;10.63;;;6.00;;
22223;SDS011;11281;52.194;21.006;2023-02-28T12:04:17;12.38;;;6.80;;
22223;SDS011;11281;52.194;21.006;2023-02-28T12:13:24;6.80;;;5.10;;
22223;SDS011;11281;52.194;21.006;2023-02-28T12:28:02;8.52;;;5.28;;
22223;SDS011;11281;52.194;21.006;2023-02-28T12:32:38;9.27;;;6.10;;
22223;SDS011;11281;52.194;21.006;2023-02-28T12:37:07;11.63;;;5.85;;
22223;SDS011;11281;52.194;21.006;2023-02-28T12:46:24;10.52;;;6.22;;
22223;SDS011;11281;52.194;21.006;2023-02-28T12:50:54;9.63;;;6.45;;
22223;SDS011;11281;52.194;21.006;2023-02-28T13:00:24;10.98;;;5.50;;
22223;SDS011;11281;52.194;21.006;2023-02-28T13:10:09;9.88;;;6.20;;
22223;SDS011;11281;52.194;21.006;2023-02-28T13:19:09;10.03;;;5.57;;
22223;SDS011;11281;52.194;21.006;2023-02-28T13:24:08;9.02;;;5.22;;
22223;SDS011;11281;52.194;21.006;2023-02-28T13:38:01;6.35;;;4.78;;
22223;SDS011;11281;52.194;21.006;2023-02-28T13:51:43;11.30;;;6.15;;
22223;SDS011;11281;52.194;21.006;2023-02-28T13:56:27;9.63;;;5.15;;
22223;SDS011;11281;52.194;21.006;2023-02-28T14:01:06;11.95;;;6.55;;
22223;SDS011;11281;52.194;21.006;2023-02-28T14:05:48;10.43;;;5.70;;
22223;SDS011;11281;52.194;21.006;2023-02-28T14:10:51;18.02;;;9.43;;
22223;SDS011;11281;52.194;21.006;2023-02-28T14:19:54;13.88;;;8.07;;
22223;SDS011;11281;52.194;21.006;2023-02-28T14:29:33;12.80;;;6.70;;
22223;SDS011;11281;52.194;21.006;2023-02-28T14:39:15;10.75;;;6.90;;
22223;SDS011;11281;52.194;21.006;2023-02-28T14:43:48;10.57;;;5.85;;
22223;SDS011;11281;52.194;21.006;2023-02-28T14:48:19;10.90;;;5.75;;
22223;SDS011;11281;52.194;21.006;2023-02-28T14:52:42;10.70;;;6.43;;
22223;SDS011;11281;52.194;21.006;2023-02-28T14:57:04;13.13;;;6.07;;
22223;SDS011;11281;52.194;21.006;2023-02-28T15:01:26;10.02;;;5.50;;
22223;SDS011;11281;52.194;21.006;2023-02-28T15:05:55;11.35;;;5.13;;
22223;SDS011;11281;52.194;21.006;2023-02-28T15:10:23;16.33;;;7.68;;
22223;SDS011;11281;52.194;21.006;2023-02-28T15:14:47;15.98;;;7.10;;
22223;SDS011;11281;52.194;21.006;2023-02-28T15:19:20;10.60;;;7.55;;
22223;SDS011;11281;52.194;21.006;2023-02-28T15:28:19;12.60;;;6.50;;
22223;SDS011;11281;52.194;21.006;2023-02-28T15:32:43;11.48;;;5.63;;
22223;SDS011;11281;52.194;21.006;2023-02-28T15:41:49;12.25;;;6.35;;
22223;SDS011;11281;52.194;21.006;2023-02-28T15:46:11;10.45;;;5.38;;
22223;SDS011;11281;52.194;21.006;2023-02-28T15:50:35;8.88;;;5.90;;
22223;SDS011;11281;52.194;21.006;2023-02-28T15:54:58;13.93;;;7.18;;
22223;SDS011;11281;52.194;21.006;2023-02-28T15:59:33;21.85;;;9.63;;
22223;SDS011;11281;52.194;21.006;2023-02-28T16:03:59;22.58;;;10.05;;
22223;SDS011;11281;52.194;21.006;2023-02-28T16:12:47;12.50;;;7.25;;
22223;SDS011;11281;52.194;21.006;2023-02-28T16:17:22;17.27;;;8.32;;
22223;SDS011;11281;52.194;21.006;2023-02-28T16:21:55;19.77;;;10.50;;
22223;SDS011;11281;52.194;21.006;2023-02-28T16:26:19;33.75;;;17.10;;
22223;SDS011;11281;52.194;21.006;2023-02-28T16:30:44;28.10;;;13.93;;
22223;SDS011;11281;52.194;21.006;2023-02-28T16:35:09;22.90;;;12.20;;
22223;SDS011;11281;52.194;21.006;2023-02-28T16:39:31;21.48;;;10.43;;
22223;SDS011;11281;52.194;21.006;2023-02-28T16:43:53;19.90;;;8.38;;
22223;SDS011;11281;52.194;21.006;2023-02-28T16:48:20;23.52;;;9.77;;
22223;SDS011;11281;52.194;21.006;2023-02-28T16:52:42;26.63;;;14.00;;
22223;SDS011;11281;52.194;21.006;2023-02-28T16:57:04;28.00;;;14.98;;
22223;SDS011;11281;52.194;21.006;2023-02-28T17:01:27;29.58;;;13.55;;
22223;SDS011;11281;52.194;21.006;2023-02-28T17:05:49;34.53;;;12.88;;
22223;SDS011;11281;52.194;21.006;2023-02-28T17:10:18;31.98;;;13.82;;
22223;SDS011;11281;52.194;21.006;2023-02-28T17:14:43;39.45;;;14.63;;
22223;SDS011;11281;52.194;21.006;2023-02-28T17:19:05;28.65;;;13.68;;
22223;SDS011;11281;52.194;21.006;2023-02-28T17:23:31;28.60;;;14.07;;
22223;SDS011;11281;52.194;21.006;2023-02-28T17:27:53;21.40;;;11.55;;
22223;SDS011;11281;52.194;21.006;2023-02-28T17:32:15;24.92;;;10.88;;
22223;SDS011;11281;52.194;21.006;2023-02-28T17:36:37;25.15;;;12.10;;
22223;SDS011;11281;52.194;21.006;2023-02-28T17:40:59;25.55;;;11.05;;
22223;SDS011;11281;52.194;21.006;2023-02-28T17:45:20;26.02;;;11.98;;
22223;SDS011;11281;52.194;21.006;2023-02-28T17:49:42;26.02;;;13.10;;
22223;SDS011;11281;52.194;21.006;2023-02-28T17:54:05;25.45;;;13.50;;
22223;SDS011;11281;52.194;21.006;2023-02-28T17:58:27;25.30;;;12.85;;
22223;SDS011;11281;52.194;21.006;2023-02-28T18:02:49;30.92;;;14.05;;
22223;SDS011;11281;52.194;21.006;2023-02-28T18:07:11;29.45;;;14.10;;
22223;SDS011;11281;52.194;21.006;2023-02-28T18:11:33;28.02;;;13.02;;
22223;SDS011;11281;52.194;21.006;2023-02-28T18:16:05;24.90;;;12.40;;
22223;SDS011;11281;52.194;21.006;2023-02-28T18:20:28;24.73;;;11.48;;
22223;SDS011;11281;52.194;21.006;2023-02-28T18:24:50;24.00;;;12.82;;
22223;SDS011;11281;52.194;21.006;2023-02-28T18:29:15;31.05;;;15.60;;
22223;SDS011;11281;52.194;21.006;2023-02-28T18:33:43;30.63;;;14.63;;
22223;SDS011;11281;52.194;21.006;2023-02-28T18:42:39;30.90;;;14.25;;
22223;SDS011;11281;52.194;21.006;2023-02-28T18:47:00;30.30;;;15.80;;
22223;SDS011;11281;52.194;21.006;2023-02-28T18:51:23;29.08;;;14.63;;
22223;SDS011;11281;52.194;21.006;2023-02-28T18:55:46;25.60;;;13.82;;
22223;SDS011;11281;52.194;21.006;2023-02-28T19:00:08;35.10;;;12.13;;
22223;SDS011;11281;52.194;21.006;2023-02-28T19:04:30;35.90;;;15.80;;
22223;SDS011;11281;52.194;21.006;2023-02-28T19:08:53;38.72;;;17.13;;
22223;SDS011;11281;52.194;21.006;2023-02-28T19:13:16;33.25;;;19.20;;
22223;SDS011;11281;52.194;21.006;2023-02-28T19:17:40;30.25;;;15.50;;
22223;SDS011;11281;52.194;21.006;2023-02-28T19:22:02;28.95;;;14.52;;
22223;SDS011;11281;52.194;21.006;2023-02-28T19:26:24;45.25;;;19.35;;
22223;SDS011;11281;52.194;21.006;2023-02-28T19:30:47;38.40;;;19.40;;
22223;SDS011;11281;52.194;21.006;2023-02-28T19:35:13;44.90;;;23.67;;
22223;SDS011;11281;52.194;21.006;2023-02-28T19:39:35;35.58;;;17.95;;
22223;SDS011;11281;52.194;21.006;2023-02-28T19:44:03;38.72;;;16.48;;
22223;SDS011;11281;52.194;21.006;2023-02-28T19:48:25;32.25;;;15.52;;
22223;SDS011;11281;52.194;21.006;2023-02-28T19:52:48;44.45;;;17.27;;
22223;SDS011;11281;52.194;21.006;2023-02-28T19:57:10;41.85;;;17.55;;
22223;SDS011;11281;52.194;21.006;2023-02-28T20:01:32;43.13;;;19.60;;
22223;SDS011;11281;52.194;21.006;2023-02-28T20:05:58;45.97;;;18.02;;
22223;SDS011;11281;52.194;21.006;2023-02-28T20:10:27;38.65;;;17.10;;
22223;SDS011;11281;52.194;21.006;2023-02-28T20:14:49;38.08;;;16.52;;
22223;SDS011;11281;52.194;21.006;2023-02-28T20:19:11;38.88;;;17.67;;
22223;SDS011;11281;52.194;21.006;2023-02-28T20:23:33;39.65;;;18.23;;
22223;SDS011;11281;52.194;21.006;2023-02-28T20:27:55;43.53;;;19.85;;
22223;SDS011;11281;52.194;21.006;2023-02-28T20:32:17;52.95;;;18.40;;
22223;SDS011;11281;52.194;21.006;2023-02-28T20:36:39;38.90;;;17.48;;
22223;SDS011;11281;52.194;21.006;2023-02-28T20:41:01;45.83;;;19.60;;
22223;SDS011;11281;52.194;21.006;2023-02-28T20:45:23;40.90;;;18.63;;
22223;SDS011;11281;52.194;21.006;2023-02-28T20:49:45;48.33;;;20.90;;
22223;SDS011;11281;52.194;21.006;2023-02-28T20:54:07;50.33;;;23.55;;
22223;SDS011;11281;52.194;21.006;2023-02-28T20:58:32;48.90;;;23.23;;
22223;SDS011;11281;52.194;21.006;2023-02-28T21:02:56;43.15;;;22.15;;
22223;SDS011;11281;52.194;21.006;2023-02-28T21:07:18;56.00;;;26.67;;
22223;SDS011;11281;52.194;21.006;2023-02-28T21:11:40;58.95;;;24.77;;
22223;SDS011;11281;52.194;21.006;2023-02-28T21:16:05;56.63;;;25.83;;
22223;SDS011;11281;52.194;21.006;2023-02-28T21:20:33;43.28;;;21.90;;
22223;SDS011;11281;52.194;21.006;2023-02-28T21:24:54;49.20;;;22.95;;
22223;SDS011;11281;52.194;21.006;2023-02-28T21:29:16;54.22;;;25.67;;
22223;SDS011;11281;52.194;21.006;2023-02-28T21:33:38;56.17;;;26.25;;
22223;SDS011;11281;52.194;21.006;2023-02-28T21:38:00;96.47;;;36.13;;
22223;SDS011;11281;52.194;21.006;2023-02-28T21:42:22;93.35;;;34.65;;
22223;SDS011;11281;52.194;21.006;2023-02-28T21:46:44;95.95;;;34.97;;
22223;SDS011;11281;52.194;21.006;2023-02-28T21:51:12;66.30;;;26.00;;
22223;SDS011;11281;52.194;21.006;2023-02-28T21:55:36;56.30;;;24.20;;
22223;SDS011;11281;52.194;21.006;2023-02-28T21:59:58;61.83;;;24.10;;
22223;SDS011;11281;52.194;21.006;2023-02-28T22:04:19;63.40;;;23.85;;
22223;SDS011;11281;52.194;21.006;2023-02-28T22:08:43;59.40;;;27.40;;
22223;SDS011;11281;52.194;21.006;2023-02-28T22:13:08;72.63;;;29.42;;
22223;SDS011;11281;52.194;21.006;2023-02-28T22:17:30;56.17;;;24.85;;
22223;SDS011;11281;52.194;21.006;2023-02-28T22:21:52;66.63;;;27.42;;
22223;SDS011;11281;52.194;21.006;2023-02-28T22:26:15;66.70;;;25.52;;
22223;SDS011;11281;52.194;21.006;2023-02-28T22:30:39;63.70;;;24.73;;
22223;SDS011;11281;52.194;21.006;2023-02-28T22:35:01;61.30;;;25.35;;
22223;SDS011;11281;52.194;21.006;2023-02-28T22:39:23;73.22;;;29.33;;
22223;SDS011;11281;52.194;21.006;2023-02-28T22:43:49;81.53;;;31.60;;
22223;SDS011;11281;52.194;21.006;2023-02-28T22:48:13;75.22;;;31.73;;
22223;SDS011;11281;52.194;21.006;2023-02-28T22:52:37;75.53;;;31.38;;
22223;SDS011;11281;52.194;21.006;2023-02-28T22:57:00;72.65;;;28.98;;
22223;SDS011;11281;52.194;21.006;2023-02-28T23:01:23;65.90;;;26.88;;
22223;SDS011;11281;52.194;21.006;2023-02-28T23:05:46;71.20;;;29.50;;
22223;SDS011;11281;52.194;21.006;2023-02-28T23:10:10;70.90;;;28.77;;
22223;SDS011;11281;52.194;21.006;2023-02-28T23:14:37;77.25;;;29.77;;
22223;SDS011;11281;52.194;21.006;2023-02-28T23:18:59;66.20;;;27.25;;
22223;SDS011;11281;52.194;21.006;2023-02-28T23:23:24;67.72;;;27.08;;
22223;SDS011;11281;52.194;21.006;2023-02-28T23:27:46;72.40;;;26.77;;
22223;SDS011;11281;52.194;21.006;2023-02-28T23:32:08;74.57;;;28.33;;
22223;SDS011;11281;52.194;21.006;2023-02-28T23:36:30;61.67;;;27.23;;
22223;SDS011;11281;52.194;21.006;2023-02-28T23:40:51;53.85;;;25.35;;
22223;SDS011;11281;52.194;21.006;2023-02-28T23:45:13;62.85;;;25.08;;
22223;SDS011;11281;52.194;21.006;2023-02-28T23:49:35;59.38;;;23.63;;
22223;SDS011;11281;52.194;21.006;2023-02-28T23:53:57;55.50;;;21.52;;
22223;SDS011;11281;52.194;21.006;2023-02-28T23:58:19;59.67;;;25.38;;
